sensor_id;sensor_type;location;lat;lon;timestamp;P1;durP1;ratioP1;P2;durP2;ratioP2
82930;SDS011;72705;53.346;10.248;2024-03-22T00:00:30;19.70;;;9.18;;
82930;SDS011;72705;53.346;10.248;2024-03-22T00:02:55;17.45;;;9.20;;
82930;SDS011;72705;53.346;10.248;2024-03-22T00:05:21;20.10;;;9.38;;
82930;SDS011;72705;53.346;10.248;2024-03-22T00:07:47;17.92;;;8.52;;
82930;SDS011;72705;53.346;10.248;2024-03-22T00:10:12;16.42;;;8.88;;
82930;SDS011;72705;53.346;10.248;2024-03-22T00:12:38;21.15;;;9.48;;
82930;SDS011;72705;53.346;10.248;2024-03-22T00:15:04;20.90;;;9.18;;
82930;SDS011;72705;53.346;10.248;2024-03-22T00:17:30;20.05;;;10.15;;
82930;SDS011;72705;53.346;10.248;2024-03-22T00:19:56;20.75;;;9.65;;
82930;SDS011;72705;53.346;10.248;2024-03-22T00:22:21;18.83;;;10.43;;
82930;SDS011;72705;53.346;10.248;2024-03-22T00:24:47;18.80;;;8.80;;
82930;SDS011;72705;53.346;10.248;2024-03-22T00:27:12;20.27;;;10.10;;
82930;SDS011;72705;53.346;10.248;2024-03-22T00:29:37;19.42;;;10.32;;
82930;SDS011;72705;53.346;10.248;2024-03-22T00:32:03;24.25;;;9.95;;
82930;SDS011;72705;53.346;10.248;2024-03-22T00:34:29;19.85;;;9.68;;
82930;SDS011;72705;53.346;10.248;2024-03-22T00:36:54;17.43;;;9.90;;
82930;SDS011;72705;53.346;10.248;2024-03-22T00:39:20;22.40;;;9.90;;
82930;SDS011;72705;53.346;10.248;2024-03-22T00:41:45;23.40;;;10.07;;
82930;SDS011;72705;53.346;10.248;2024-03-22T00:44:10;18.57;;;10.17;;
82930;SDS011;72705;53.346;10.248;2024-03-22T00:46:36;19.83;;;11.17;;
82930;SDS011;72705;53.346;10.248;2024-03-22T00:49:02;18.92;;;10.35;;
82930;SDS011;72705;53.346;10.248;2024-03-22T00:51:27;24.58;;;10.82;;
82930;SDS011;72705;53.346;10.248;2024-03-22T00:53:53;19.27;;;9.27;;
82930;SDS011;72705;53.346;10.248;2024-03-22T00:56:19;22.88;;;10.38;;
82930;SDS011;72705;53.346;10.248;2024-03-22T00:58:44;20.95;;;10.27;;
82930;SDS011;72705;53.346;10.248;2024-03-22T01:01:09;20.73;;;11.17;;
82930;SDS011;72705;53.346;10.248;2024-03-22T01:03:35;20.83;;;11.32;;
82930;SDS011;72705;53.346;10.248;2024-03-22T01:06:01;20.55;;;11.05;;
82930;SDS011;72705;53.346;10.248;2024-03-22T01:08:27;20.48;;;11.32;;
82930;SDS011;72705;53.346;10.248;2024-03-22T01:10:52;21.63;;;12.38;;
82930;SDS011;72705;53.346;10.248;2024-03-22T01:13:18;25.27;;;11.15;;
82930;SDS011;72705;53.346;10.248;2024-03-22T01:15:45;24.80;;;12.43;;
82930;SDS011;72705;53.346;10.248;2024-03-22T01:18:12;25.25;;;13.02;;
82930;SDS011;72705;53.346;10.248;2024-03-22T01:20:38;24.83;;;11.23;;
82930;SDS011;72705;53.346;10.248;2024-03-22T01:23:04;26.73;;;12.80;;
82930;SDS011;72705;53.346;10.248;2024-03-22T01:25:29;28.92;;;13.00;;
82930;SDS011;72705;53.346;10.248;2024-03-22T01:27:55;25.30;;;14.05;;
82930;SDS011;72705;53.346;10.248;2024-03-22T01:30:21;25.70;;;13.40;;
82930;SDS011;72705;53.346;10.248;2024-03-22T01:32:46;27.02;;;13.07;;
82930;SDS011;72705;53.346;10.248;2024-03-22T01:35:12;25.95;;;13.52;;
82930;SDS011;72705;53.346;10.248;2024-03-22T01:37:37;24.60;;;12.90;;
82930;SDS011;72705;53.346;10.248;2024-03-22T01:40:03;25.53;;;13.47;;
82930;SDS011;72705;53.346;10.248;2024-03-22T01:42:30;25.65;;;11.93;;
82930;SDS011;72705;53.346;10.248;2024-03-22T01:44:55;24.75;;;13.10;;
82930;SDS011;72705;53.346;10.248;2024-03-22T01:47:21;23.25;;;12.48;;
82930;SDS011;72705;53.346;10.248;2024-03-22T01:49:47;26.98;;;13.32;;
82930;SDS011;72705;53.346;10.248;2024-03-22T01:52:14;30.23;;;13.70;;
82930;SDS011;72705;53.346;10.248;2024-03-22T01:54:39;26.25;;;13.10;;
82930;SDS011;72705;53.346;10.248;2024-03-22T01:57:05;26.42;;;13.30;;
82930;SDS011;72705;53.346;10.248;2024-03-22T01:59:32;33.33;;;15.07;;
82930;SDS011;72705;53.346;10.248;2024-03-22T02:01:59;23.25;;;13.10;;
82930;SDS011;72705;53.346;10.248;2024-03-22T02:04:25;26.35;;;13.60;;
82930;SDS011;72705;53.346;10.248;2024-03-22T02:06:50;29.08;;;14.90;;
82930;SDS011;72705;53.346;10.248;2024-03-22T02:09:16;29.30;;;15.07;;
82930;SDS011;72705;53.346;10.248;2024-03-22T02:11:41;28.98;;;13.05;;
82930;SDS011;72705;53.346;10.248;2024-03-22T02:14:08;29.80;;;14.88;;
82930;SDS011;72705;53.346;10.248;2024-03-22T02:16:33;29.63;;;14.80;;
82930;SDS011;72705;53.346;10.248;2024-03-22T02:18:59;27.20;;;14.30;;
82930;SDS011;72705;53.346;10.248;2024-03-22T02:21:24;23.63;;;12.52;;
82930;SDS011;72705;53.346;10.248;2024-03-22T02:23:50;29.73;;;15.93;;
82930;SDS011;72705;53.346;10.248;2024-03-22T02:26:15;26.90;;;13.80;;
82930;SDS011;72705;53.346;10.248;2024-03-22T02:28:41;28.87;;;15.47;;
82930;SDS011;72705;53.346;10.248;2024-03-22T02:31:06;28.00;;;13.57;;
82930;SDS011;72705;53.346;10.248;2024-03-22T02:33:31;27.40;;;15.25;;
82930;SDS011;72705;53.346;10.248;2024-03-22T02:35:57;28.27;;;14.07;;
82930;SDS011;72705;53.346;10.248;2024-03-22T02:38:23;27.98;;;15.38;;
82930;SDS011;72705;53.346;10.248;2024-03-22T02:40:49;27.60;;;15.57;;
82930;SDS011;72705;53.346;10.248;2024-03-22T02:43:16;32.22;;;15.65;;
82930;SDS011;72705;53.346;10.248;2024-03-22T02:45:43;30.65;;;16.20;;
82930;SDS011;72705;53.346;10.248;2024-03-22T02:48:10;30.45;;;15.77;;
82930;SDS011;72705;53.346;10.248;2024-03-22T02:50:36;24.38;;;12.57;;
82930;SDS011;72705;53.346;10.248;2024-03-22T02:53:02;31.17;;;15.88;;
82930;SDS011;72705;53.346;10.248;2024-03-22T02:55:28;30.25;;;15.07;;
82930;SDS011;72705;53.346;10.248;2024-03-22T02:57:56;30.95;;;16.60;;
82930;SDS011;72705;53.346;10.248;2024-03-22T03:00:22;34.17;;;16.85;;
82930;SDS011;72705;53.346;10.248;2024-03-22T03:02:47;32.28;;;15.63;;
82930;SDS011;72705;53.346;10.248;2024-03-22T03:05:12;26.25;;;15.32;;
82930;SDS011;72705;53.346;10.248;2024-03-22T03:07:38;34.20;;;17.67;;
82930;SDS011;72705;53.346;10.248;2024-03-22T03:10:03;39.60;;;18.80;;
82930;SDS011;72705;53.346;10.248;2024-03-22T03:12:29;32.30;;;16.65;;
82930;SDS011;72705;53.346;10.248;2024-03-22T03:14:54;34.83;;;16.83;;
82930;SDS011;72705;53.346;10.248;2024-03-22T03:17:20;34.37;;;17.03;;
82930;SDS011;72705;53.346;10.248;2024-03-22T03:19:45;38.50;;;18.30;;
82930;SDS011;72705;53.346;10.248;2024-03-22T03:22:10;39.30;;;18.40;;
82930;SDS011;72705;53.346;10.248;2024-03-22T03:24:35;36.20;;;17.93;;
82930;SDS011;72705;53.346;10.248;2024-03-22T03:27:01;38.15;;;18.52;;
82930;SDS011;72705;53.346;10.248;2024-03-22T03:29:27;35.08;;;17.85;;
82930;SDS011;72705;53.346;10.248;2024-03-22T03:31:54;39.17;;;18.65;;
82930;SDS011;72705;53.346;10.248;2024-03-22T03:34:19;35.13;;;17.60;;
82930;SDS011;72705;53.346;10.248;2024-03-22T03:36:46;37.20;;;18.50;;
82930;SDS011;72705;53.346;10.248;2024-03-22T03:39:12;41.13;;;18.33;;
82930;SDS011;72705;53.346;10.248;2024-03-22T03:41:37;40.47;;;19.53;;
82930;SDS011;72705;53.346;10.248;2024-03-22T03:44:02;37.40;;;17.55;;
82930;SDS011;72705;53.346;10.248;2024-03-22T03:46:29;39.25;;;19.30;;
82930;SDS011;72705;53.346;10.248;2024-03-22T03:48:54;41.10;;;19.30;;
82930;SDS011;72705;53.346;10.248;2024-03-22T03:51:19;40.37;;;20.57;;
82930;SDS011;72705;53.346;10.248;2024-03-22T03:53:46;41.42;;;18.42;;
82930;SDS011;72705;53.346;10.248;2024-03-22T03:56:12;34.80;;;19.70;;
82930;SDS011;72705;53.346;10.248;2024-03-22T03:58:37;39.63;;;20.07;;
82930;SDS011;72705;53.346;10.248;2024-03-22T04:01:08;37.25;;;18.77;;
82930;SDS011;72705;53.346;10.248;2024-03-22T04:03:34;39.25;;;19.85;;
82930;SDS011;72705;53.346;10.248;2024-03-22T04:06:00;40.45;;;19.25;;
82930;SDS011;72705;53.346;10.248;2024-03-22T04:08:25;36.13;;;17.77;;
82930;SDS011;72705;53.346;10.248;2024-03-22T04:10:54;39.10;;;19.90;;
82930;SDS011;72705;53.346;10.248;2024-03-22T04:13:23;47.67;;;21.80;;
82930;SDS011;72705;53.346;10.248;2024-03-22T04:15:50;45.92;;;19.95;;
82930;SDS011;72705;53.346;10.248;2024-03-22T04:18:16;45.65;;;20.35;;
82930;SDS011;72705;53.346;10.248;2024-03-22T04:20:41;40.42;;;19.30;;
82930;SDS011;72705;53.346;10.248;2024-03-22T04:23:08;48.42;;;21.08;;
82930;SDS011;72705;53.346;10.248;2024-03-22T04:25:33;44.07;;;21.43;;
82930;SDS011;72705;53.346;10.248;2024-03-22T04:27:58;36.73;;;17.43;;
82930;SDS011;72705;53.346;10.248;2024-03-22T04:32:53;44.67;;;19.88;;
82930;SDS011;72705;53.346;10.248;2024-03-22T04:35:18;44.40;;;21.97;;
82930;SDS011;72705;53.346;10.248;2024-03-22T04:37:44;48.57;;;21.47;;
82930;SDS011;72705;53.346;10.248;2024-03-22T04:40:09;41.87;;;21.30;;
82930;SDS011;72705;53.346;10.248;2024-03-22T04:42:35;43.55;;;21.10;;
82930;SDS011;72705;53.346;10.248;2024-03-22T04:45:00;45.58;;;21.83;;
82930;SDS011;72705;53.346;10.248;2024-03-22T04:47:26;49.67;;;21.83;;
82930;SDS011;72705;53.346;10.248;2024-03-22T04:49:52;44.22;;;21.08;;
82930;SDS011;72705;53.346;10.248;2024-03-22T04:52:18;47.13;;;23.30;;
82930;SDS011;72705;53.346;10.248;2024-03-22T04:54:43;45.73;;;20.00;;
82930;SDS011;72705;53.346;10.248;2024-03-22T04:57:09;45.42;;;21.35;;
82930;SDS011;72705;53.346;10.248;2024-03-22T04:59:35;44.85;;;21.05;;
82930;SDS011;72705;53.346;10.248;2024-03-22T05:02:01;44.40;;;21.05;;
82930;SDS011;72705;53.346;10.248;2024-03-22T05:04:27;45.60;;;22.90;;
82930;SDS011;72705;53.346;10.248;2024-03-22T05:06:52;48.58;;;21.60;;
82930;SDS011;72705;53.346;10.248;2024-03-22T05:09:17;42.63;;;21.50;;
82930;SDS011;72705;53.346;10.248;2024-03-22T05:11:43;45.33;;;21.00;;
82930;SDS011;72705;53.346;10.248;2024-03-22T05:14:08;49.73;;;22.63;;
82930;SDS011;72705;53.346;10.248;2024-03-22T05:16:33;45.85;;;21.67;;
82930;SDS011;72705;53.346;10.248;2024-03-22T05:18:59;50.83;;;21.08;;
82930;SDS011;72705;53.346;10.248;2024-03-22T05:21:24;47.27;;;22.90;;
82930;SDS011;72705;53.346;10.248;2024-03-22T05:23:51;51.95;;;22.98;;
82930;SDS011;72705;53.346;10.248;2024-03-22T05:26:16;47.20;;;23.07;;
82930;SDS011;72705;53.346;10.248;2024-03-22T05:28:44;46.97;;;21.83;;
82930;SDS011;72705;53.346;10.248;2024-03-22T05:31:09;46.03;;;21.27;;
82930;SDS011;72705;53.346;10.248;2024-03-22T05:33:34;48.22;;;23.52;;
82930;SDS011;72705;53.346;10.248;2024-03-22T05:36:00;51.90;;;24.20;;
82930;SDS011;72705;53.346;10.248;2024-03-22T05:38:25;49.63;;;22.53;;
82930;SDS011;72705;53.346;10.248;2024-03-22T05:40:51;52.78;;;24.38;;
82930;SDS011;72705;53.346;10.248;2024-03-22T05:43:16;51.10;;;24.57;;
82930;SDS011;72705;53.346;10.248;2024-03-22T05:45:41;50.30;;;24.23;;
82930;SDS011;72705;53.346;10.248;2024-03-22T05:48:07;53.25;;;24.02;;
82930;SDS011;72705;53.346;10.248;2024-03-22T05:50:32;52.28;;;23.67;;
82930;SDS011;72705;53.346;10.248;2024-03-22T05:52:58;52.47;;;22.37;;
82930;SDS011;72705;53.346;10.248;2024-03-22T05:55:23;50.63;;;22.20;;
82930;SDS011;72705;53.346;10.248;2024-03-22T05:57:52;52.03;;;23.98;;
82930;SDS011;72705;53.346;10.248;2024-03-22T06:00:17;53.75;;;24.83;;
82930;SDS011;72705;53.346;10.248;2024-03-22T06:02:43;49.45;;;23.35;;
82930;SDS011;72705;53.346;10.248;2024-03-22T06:05:09;53.03;;;24.53;;
82930;SDS011;72705;53.346;10.248;2024-03-22T06:07:34;55.38;;;24.02;;
82930;SDS011;72705;53.346;10.248;2024-03-22T06:10:07;56.15;;;25.75;;
82930;SDS011;72705;53.346;10.248;2024-03-22T06:12:34;55.25;;;24.92;;
82930;SDS011;72705;53.346;10.248;2024-03-22T06:15:00;55.05;;;24.33;;
82930;SDS011;72705;53.346;10.248;2024-03-22T06:17:27;53.22;;;23.63;;
82930;SDS011;72705;53.346;10.248;2024-03-22T06:19:52;52.53;;;24.10;;
82930;SDS011;72705;53.346;10.248;2024-03-22T06:22:18;54.03;;;24.58;;
82930;SDS011;72705;53.346;10.248;2024-03-22T06:24:44;50.50;;;24.05;;
82930;SDS011;72705;53.346;10.248;2024-03-22T06:27:10;54.95;;;24.17;;
82930;SDS011;72705;53.346;10.248;2024-03-22T06:29:35;54.13;;;24.33;;
82930;SDS011;72705;53.346;10.248;2024-03-22T06:32:01;52.78;;;24.52;;
82930;SDS011;72705;53.346;10.248;2024-03-22T06:34:27;53.40;;;24.57;;
82930;SDS011;72705;53.346;10.248;2024-03-22T06:36:52;51.47;;;24.10;;
82930;SDS011;72705;53.346;10.248;2024-03-22T06:39:18;53.97;;;24.85;;
82930;SDS011;72705;53.346;10.248;2024-03-22T06:41:44;56.80;;;25.55;;
82930;SDS011;72705;53.346;10.248;2024-03-22T06:44:10;56.47;;;25.95;;
82930;SDS011;72705;53.346;10.248;2024-03-22T06:46:37;54.35;;;25.52;;
82930;SDS011;72705;53.346;10.248;2024-03-22T06:49:02;55.38;;;25.30;;
82930;SDS011;72705;53.346;10.248;2024-03-22T06:51:27;57.03;;;26.20;;
82930;SDS011;72705;53.346;10.248;2024-03-22T06:53:53;55.27;;;25.87;;
82930;SDS011;72705;53.346;10.248;2024-03-22T06:56:18;56.67;;;27.27;;
82930;SDS011;72705;53.346;10.248;2024-03-22T06:58:45;58.00;;;26.25;;
82930;SDS011;72705;53.346;10.248;2024-03-22T07:01:11;54.92;;;24.65;;
82930;SDS011;72705;53.346;10.248;2024-03-22T07:03:37;53.17;;;24.73;;
82930;SDS011;72705;53.346;10.248;2024-03-22T07:06:02;54.78;;;25.33;;
82930;SDS011;72705;53.346;10.248;2024-03-22T07:08:28;57.05;;;26.23;;
82930;SDS011;72705;53.346;10.248;2024-03-22T07:10:53;58.42;;;26.38;;
82930;SDS011;72705;53.346;10.248;2024-03-22T07:13:19;58.40;;;26.70;;
82930;SDS011;72705;53.346;10.248;2024-03-22T07:15:45;57.42;;;27.33;;
82930;SDS011;72705;53.346;10.248;2024-03-22T07:18:12;57.85;;;27.25;;
82930;SDS011;72705;53.346;10.248;2024-03-22T07:20:38;59.30;;;26.83;;
82930;SDS011;72705;53.346;10.248;2024-03-22T07:23:03;61.80;;;27.67;;
82930;SDS011;72705;53.346;10.248;2024-03-22T07:25:29;60.97;;;27.35;;
82930;SDS011;72705;53.346;10.248;2024-03-22T07:27:54;65.20;;;28.98;;
82930;SDS011;72705;53.346;10.248;2024-03-22T07:30:20;59.33;;;28.80;;
82930;SDS011;72705;53.346;10.248;2024-03-22T07:32:46;63.08;;;28.40;;
82930;SDS011;72705;53.346;10.248;2024-03-22T07:35:12;63.22;;;29.83;;
82930;SDS011;72705;53.346;10.248;2024-03-22T07:37:38;64.40;;;28.30;;
82930;SDS011;72705;53.346;10.248;2024-03-22T07:40:03;65.03;;;29.67;;
82930;SDS011;72705;53.346;10.248;2024-03-22T07:42:30;55.83;;;26.70;;
82930;SDS011;72705;53.346;10.248;2024-03-22T07:44:57;63.35;;;27.88;;
82930;SDS011;72705;53.346;10.248;2024-03-22T07:47:23;61.53;;;28.27;;
82930;SDS011;72705;53.346;10.248;2024-03-22T07:49:48;57.67;;;26.92;;
82930;SDS011;72705;53.346;10.248;2024-03-22T07:52:13;62.75;;;28.77;;
82930;SDS011;72705;53.346;10.248;2024-03-22T07:54:39;64.07;;;30.57;;
82930;SDS011;72705;53.346;10.248;2024-03-22T07:57:04;64.30;;;28.02;;
82930;SDS011;72705;53.346;10.248;2024-03-22T07:59:29;65.27;;;29.70;;
82930;SDS011;72705;53.346;10.248;2024-03-22T08:01:55;68.75;;;29.15;;
82930;SDS011;72705;53.346;10.248;2024-03-22T08:04:22;61.05;;;29.13;;
82930;SDS011;72705;53.346;10.248;2024-03-22T08:06:50;64.60;;;30.45;;
82930;SDS011;72705;53.346;10.248;2024-03-22T08:09:15;66.13;;;29.80;;
82930;SDS011;72705;53.346;10.248;2024-03-22T08:11:41;65.93;;;30.42;;
82930;SDS011;72705;53.346;10.248;2024-03-22T08:14:07;67.93;;;28.98;;
82930;SDS011;72705;53.346;10.248;2024-03-22T08:16:32;66.03;;;30.70;;
82930;SDS011;72705;53.346;10.248;2024-03-22T08:18:57;70.43;;;33.05;;
82930;SDS011;72705;53.346;10.248;2024-03-22T08:21:23;67.23;;;31.73;;
82930;SDS011;72705;53.346;10.248;2024-03-22T08:23:51;68.75;;;31.27;;
82930;SDS011;72705;53.346;10.248;2024-03-22T08:26:17;65.95;;;31.23;;
82930;SDS011;72705;53.346;10.248;2024-03-22T08:28:44;73.05;;;31.90;;
82930;SDS011;72705;53.346;10.248;2024-03-22T08:31:10;76.25;;;32.28;;
82930;SDS011;72705;53.346;10.248;2024-03-22T08:33:35;72.13;;;32.17;;
82930;SDS011;72705;53.346;10.248;2024-03-22T08:36:00;71.40;;;31.47;;
82930;SDS011;72705;53.346;10.248;2024-03-22T08:38:26;73.70;;;32.72;;
82930;SDS011;72705;53.346;10.248;2024-03-22T08:40:52;69.82;;;32.42;;
82930;SDS011;72705;53.346;10.248;2024-03-22T08:43:17;79.10;;;32.72;;
82930;SDS011;72705;53.346;10.248;2024-03-22T08:45:42;79.75;;;33.75;;
82930;SDS011;72705;53.346;10.248;2024-03-22T08:48:09;84.27;;;34.10;;
82930;SDS011;72705;53.346;10.248;2024-03-22T08:50:34;81.35;;;33.25;;
82930;SDS011;72705;53.346;10.248;2024-03-22T08:53:00;77.57;;;31.65;;
82930;SDS011;72705;53.346;10.248;2024-03-22T08:55:28;82.10;;;35.03;;
82930;SDS011;72705;53.346;10.248;2024-03-22T08:57:53;74.78;;;32.33;;
82930;SDS011;72705;53.346;10.248;2024-03-22T09:00:19;72.77;;;31.77;;
82930;SDS011;72705;53.346;10.248;2024-03-22T09:02:44;78.65;;;32.08;;
82930;SDS011;72705;53.346;10.248;2024-03-22T09:05:09;76.83;;;31.17;;
82930;SDS011;72705;53.346;10.248;2024-03-22T09:07:36;71.53;;;31.88;;
82930;SDS011;72705;53.346;10.248;2024-03-22T09:10:01;70.45;;;31.83;;
82930;SDS011;72705;53.346;10.248;2024-03-22T09:12:27;75.97;;;33.28;;
82930;SDS011;72705;53.346;10.248;2024-03-22T09:14:52;72.95;;;31.40;;
82930;SDS011;72705;53.346;10.248;2024-03-22T09:17:18;72.68;;;30.52;;
82930;SDS011;72705;53.346;10.248;2024-03-22T09:19:43;66.23;;;28.47;;
82930;SDS011;72705;53.346;10.248;2024-03-22T09:22:10;64.78;;;28.23;;
82930;SDS011;72705;53.346;10.248;2024-03-22T09:24:35;61.97;;;27.67;;
82930;SDS011;72705;53.346;10.248;2024-03-22T09:27:00;64.70;;;27.45;;
82930;SDS011;72705;53.346;10.248;2024-03-22T09:29:33;63.17;;;27.25;;
82930;SDS011;72705;53.346;10.248;2024-03-22T09:31:58;61.43;;;28.70;;
82930;SDS011;72705;53.346;10.248;2024-03-22T09:34:24;65.93;;;28.40;;
82930;SDS011;72705;53.346;10.248;2024-03-22T09:36:49;65.22;;;29.05;;
82930;SDS011;72705;53.346;10.248;2024-03-22T09:39:17;63.85;;;27.75;;
82930;SDS011;72705;53.346;10.248;2024-03-22T09:41:43;66.25;;;28.33;;
82930;SDS011;72705;53.346;10.248;2024-03-22T09:44:18;47.38;;;23.42;;
82930;SDS011;72705;53.346;10.248;2024-03-22T09:46:47;67.85;;;30.85;;
82930;SDS011;72705;53.346;10.248;2024-03-22T09:49:15;66.32;;;28.05;;
82930;SDS011;72705;53.346;10.248;2024-03-22T09:51:42;58.05;;;28.35;;
82930;SDS011;72705;53.346;10.248;2024-03-22T09:54:09;65.40;;;28.05;;
82930;SDS011;72705;53.346;10.248;2024-03-22T09:56:35;71.50;;;28.80;;
82930;SDS011;72705;53.346;10.248;2024-03-22T09:59:02;66.47;;;29.02;;
82930;SDS011;72705;53.346;10.248;2024-03-22T10:01:28;67.32;;;27.40;;
82930;SDS011;72705;53.346;10.248;2024-03-22T10:03:55;74.57;;;30.42;;
82930;SDS011;72705;53.346;10.248;2024-03-22T10:06:20;69.93;;;31.25;;
82930;SDS011;72705;53.346;10.248;2024-03-22T10:08:46;68.78;;;30.00;;
82930;SDS011;72705;53.346;10.248;2024-03-22T10:11:11;67.22;;;28.98;;
82930;SDS011;72705;53.346;10.248;2024-03-22T10:13:38;67.80;;;29.83;;
82930;SDS011;72705;53.346;10.248;2024-03-22T10:16:04;68.53;;;26.70;;
82930;SDS011;72705;53.346;10.248;2024-03-22T10:18:32;72.63;;;29.38;;
82930;SDS011;72705;53.346;10.248;2024-03-22T10:21:02;78.68;;;32.63;;
82930;SDS011;72705;53.346;10.248;2024-03-22T10:23:29;72.55;;;31.75;;
82930;SDS011;72705;53.346;10.248;2024-03-22T10:25:56;72.15;;;30.92;;
82930;SDS011;72705;53.346;10.248;2024-03-22T10:28:27;77.18;;;29.38;;
82930;SDS011;72705;53.346;10.248;2024-03-22T10:30:53;62.45;;;27.20;;
82930;SDS011;72705;53.346;10.248;2024-03-22T10:33:19;76.80;;;30.55;;
82930;SDS011;72705;53.346;10.248;2024-03-22T10:35:47;67.88;;;29.48;;
82930;SDS011;72705;53.346;10.248;2024-03-22T10:38:19;62.45;;;25.63;;
82930;SDS011;72705;53.346;10.248;2024-03-22T10:40:45;62.97;;;27.63;;
82930;SDS011;72705;53.346;10.248;2024-03-22T10:43:12;57.33;;;27.30;;
82930;SDS011;72705;53.346;10.248;2024-03-22T10:45:38;67.32;;;27.70;;
82930;SDS011;72705;53.346;10.248;2024-03-22T10:48:06;64.97;;;27.13;;
82930;SDS011;72705;53.346;10.248;2024-03-22T10:50:35;62.63;;;26.30;;
82930;SDS011;72705;53.346;10.248;2024-03-22T10:53:04;61.10;;;27.95;;
82930;SDS011;72705;53.346;10.248;2024-03-22T10:55:33;66.32;;;26.10;;
82930;SDS011;72705;53.346;10.248;2024-03-22T10:58:01;61.10;;;26.95;;
82930;SDS011;72705;53.346;10.248;2024-03-22T11:00:27;52.85;;;26.15;;
82930;SDS011;72705;53.346;10.248;2024-03-22T11:02:56;57.85;;;24.55;;
82930;SDS011;72705;53.346;10.248;2024-03-22T11:05:22;55.70;;;24.98;;
82930;SDS011;72705;53.346;10.248;2024-03-22T11:07:47;58.85;;;26.50;;
82930;SDS011;72705;53.346;10.248;2024-03-22T11:10:13;59.38;;;25.02;;
82930;SDS011;72705;53.346;10.248;2024-03-22T11:12:39;55.22;;;24.38;;
82930;SDS011;72705;53.346;10.248;2024-03-22T11:15:05;51.30;;;24.75;;
82930;SDS011;72705;53.346;10.248;2024-03-22T11:17:31;46.30;;;22.98;;
82930;SDS011;72705;53.346;10.248;2024-03-22T11:19:56;50.97;;;23.07;;
82930;SDS011;72705;53.346;10.248;2024-03-22T11:22:22;52.63;;;21.88;;
82930;SDS011;72705;53.346;10.248;2024-03-22T11:24:47;45.90;;;21.75;;
82930;SDS011;72705;53.346;10.248;2024-03-22T11:27:13;41.33;;;19.85;;
82930;SDS011;72705;53.346;10.248;2024-03-22T11:29:39;39.42;;;20.02;;
82930;SDS011;72705;53.346;10.248;2024-03-22T11:32:06;41.47;;;18.70;;
82930;SDS011;72705;53.346;10.248;2024-03-22T11:34:35;39.03;;;18.85;;
82930;SDS011;72705;53.346;10.248;2024-03-22T11:37:01;38.05;;;19.10;;
82930;SDS011;72705;53.346;10.248;2024-03-22T11:39:27;40.13;;;17.23;;
82930;SDS011;72705;53.346;10.248;2024-03-22T11:41:52;36.92;;;18.45;;
82930;SDS011;72705;53.346;10.248;2024-03-22T11:44:18;33.40;;;17.17;;
82930;SDS011;72705;53.346;10.248;2024-03-22T11:46:44;31.90;;;17.70;;
82930;SDS011;72705;53.346;10.248;2024-03-22T11:49:10;28.23;;;15.38;;
82930;SDS011;72705;53.346;10.248;2024-03-22T11:51:36;34.38;;;15.50;;
82930;SDS011;72705;53.346;10.248;2024-03-22T11:54:04;27.02;;;13.50;;
82930;SDS011;72705;53.346;10.248;2024-03-22T11:56:34;27.55;;;14.55;;
82930;SDS011;72705;53.346;10.248;2024-03-22T11:59:00;25.30;;;14.48;;
82930;SDS011;72705;53.346;10.248;2024-03-22T12:01:26;25.90;;;12.57;;
82930;SDS011;72705;53.346;10.248;2024-03-22T12:03:53;24.38;;;12.48;;
82930;SDS011;72705;53.346;10.248;2024-03-22T12:06:19;28.83;;;12.52;;
82930;SDS011;72705;53.346;10.248;2024-03-22T12:08:46;20.73;;;12.40;;
82930;SDS011;72705;53.346;10.248;2024-03-22T12:11:11;22.60;;;12.50;;
82930;SDS011;72705;53.346;10.248;2024-03-22T12:13:40;20.90;;;11.00;;
82930;SDS011;72705;53.346;10.248;2024-03-22T12:18:31;19.65;;;11.13;;
82930;SDS011;72705;53.346;10.248;2024-03-22T12:20:56;18.88;;;10.65;;
82930;SDS011;72705;53.346;10.248;2024-03-22T12:23:22;22.45;;;11.10;;
82930;SDS011;72705;53.346;10.248;2024-03-22T12:25:48;24.33;;;11.93;;
82930;SDS011;72705;53.346;10.248;2024-03-22T12:28:15;24.38;;;12.18;;
82930;SDS011;72705;53.346;10.248;2024-03-22T12:30:40;23.38;;;12.13;;
82930;SDS011;72705;53.346;10.248;2024-03-22T12:33:06;22.70;;;12.43;;
82930;SDS011;72705;53.346;10.248;2024-03-22T12:35:35;22.70;;;12.35;;
82930;SDS011;72705;53.346;10.248;2024-03-22T12:38:00;23.77;;;12.55;;
82930;SDS011;72705;53.346;10.248;2024-03-22T12:40:26;22.80;;;12.37;;
82930;SDS011;72705;53.346;10.248;2024-03-22T12:42:52;24.98;;;13.30;;
82930;SDS011;72705;53.346;10.248;2024-03-22T12:45:18;21.13;;;12.83;;
82930;SDS011;72705;53.346;10.248;2024-03-22T12:47:44;23.05;;;12.10;;
82930;SDS011;72705;53.346;10.248;2024-03-22T12:50:09;20.80;;;11.03;;
82930;SDS011;72705;53.346;10.248;2024-03-22T12:52:35;18.77;;;10.60;;
82930;SDS011;72705;53.346;10.248;2024-03-22T12:55:01;19.10;;;11.77;;
82930;SDS011;72705;53.346;10.248;2024-03-22T12:57:26;17.50;;;10.33;;
82930;SDS011;72705;53.346;10.248;2024-03-22T12:59:51;19.63;;;9.97;;
82930;SDS011;72705;53.346;10.248;2024-03-22T13:02:16;19.27;;;10.40;;
82930;SDS011;72705;53.346;10.248;2024-03-22T13:04:42;17.43;;;9.43;;
82930;SDS011;72705;53.346;10.248;2024-03-22T13:07:08;16.50;;;10.25;;
82930;SDS011;72705;53.346;10.248;2024-03-22T13:09:33;15.57;;;9.30;;
82930;SDS011;72705;53.346;10.248;2024-03-22T13:11:59;18.25;;;9.70;;
82930;SDS011;72705;53.346;10.248;2024-03-22T13:14:24;17.25;;;9.43;;
82930;SDS011;72705;53.346;10.248;2024-03-22T13:16:49;18.27;;;10.48;;
82930;SDS011;72705;53.346;10.248;2024-03-22T13:19:15;18.02;;;9.23;;
82930;SDS011;72705;53.346;10.248;2024-03-22T13:21:45;17.02;;;9.13;;
82930;SDS011;72705;53.346;10.248;2024-03-22T13:24:15;16.63;;;9.45;;
82930;SDS011;72705;53.346;10.248;2024-03-22T13:26:40;15.95;;;9.13;;
82930;SDS011;72705;53.346;10.248;2024-03-22T13:29:06;18.30;;;9.63;;
82930;SDS011;72705;53.346;10.248;2024-03-22T13:31:32;18.13;;;9.70;;
82930;SDS011;72705;53.346;10.248;2024-03-22T13:33:58;17.60;;;9.40;;
82930;SDS011;72705;53.346;10.248;2024-03-22T13:36:23;13.45;;;8.50;;
82930;SDS011;72705;53.346;10.248;2024-03-22T13:38:50;17.40;;;8.25;;
82930;SDS011;72705;53.346;10.248;2024-03-22T13:41:18;17.88;;;9.32;;
82930;SDS011;72705;53.346;10.248;2024-03-22T13:43:43;17.33;;;9.47;;
82930;SDS011;72705;53.346;10.248;2024-03-22T13:46:09;17.40;;;8.77;;
82930;SDS011;72705;53.346;10.248;2024-03-22T13:48:39;19.08;;;8.70;;
82930;SDS011;72705;53.346;10.248;2024-03-22T13:51:05;15.57;;;8.65;;
82930;SDS011;72705;53.346;10.248;2024-03-22T13:53:30;17.67;;;8.47;;
82930;SDS011;72705;53.346;10.248;2024-03-22T13:55:55;16.13;;;8.77;;
82930;SDS011;72705;53.346;10.248;2024-03-22T13:58:21;13.93;;;8.20;;
82930;SDS011;72705;53.346;10.248;2024-03-22T14:00:47;15.35;;;9.68;;
82930;SDS011;72705;53.346;10.248;2024-03-22T14:03:12;14.18;;;8.27;;
82930;SDS011;72705;53.346;10.248;2024-03-22T14:05:38;16.63;;;9.80;;
82930;SDS011;72705;53.346;10.248;2024-03-22T14:08:03;14.88;;;8.25;;